createdAt,value
2022-08-16T00:01:33.722Z,95433.13
2022-08-16T00:04:05.500Z,95427.22
2022-08-16T00:06:33.502Z,95428.16
2022-08-16T00:09:01.197Z,95425.31
2022-08-16T00:11:28.899Z,95430.41
2022-08-16T00:13:56.707Z,95429.13
2022-08-16T00:17:01.704Z,95436.31
2022-08-16T00:19:15.707Z,95435.59
2022-08-16T00:21:43.562Z,95430.94
2022-08-16T00:24:12.405Z,95431.03
2022-08-16T00:26:44.257Z,95437.31
2022-08-16T00:29:15.963Z,95436.31
2022-08-16T00:31:59.720Z,95431.91
2022-08-16T00:34:43.710Z,95426.94
2022-08-16T00:37:20.463Z,95409.09
2022-08-16T00:39:57.224Z,95421.34
2022-08-16T00:42:30.133Z,95412.88
2022-08-16T00:45:09.531Z,95427.28
2022-08-16T00:47:49.556Z,95423.59
2022-08-16T00:50:18.614Z,95430.72
2022-08-16T00:52:50.838Z,95427.34
2022-08-16T00:55:22.094Z,95429.88
2022-08-16T00:57:59.224Z,95433.88
2022-08-16T01:00:30.990Z,95428.41
2022-08-16T01:03:05.862Z,95420.09
2022-08-16T01:05:39.960Z,95426.84
2022-08-16T01:08:35.301Z,95428.94
2022-08-16T01:11:00.010Z,95429.56
2022-08-16T01:13:32.624Z,95419.88
2022-08-16T01:16:03.624Z,95426.34
2022-08-16T01:18:40.154Z,95421.63
2022-08-16T01:21:33.274Z,95423.44
2022-08-16T01:24:53.314Z,95427.59
2022-08-16T01:27:06.241Z,95429.84
2022-08-16T01:29:57.874Z,95397.69
2022-08-16T01:32:41.152Z,95425.94
2022-08-16T01:35:17.095Z,95422.09
2022-08-16T01:37:53.047Z,95423.88
2022-08-16T01:40:29.447Z,95428.09
2022-08-16T01:42:58.176Z,95430.34
2022-08-16T01:45:39.735Z,95410.38
2022-08-16T01:48:19.868Z,95422.63
2022-08-16T01:51:09.451Z,95423.75
2022-08-16T01:53:40.514Z,95427.09
2022-08-16T01:56:23.710Z,95404.69
2022-08-16T01:58:55.629Z,95402.78
2022-08-16T02:01:26.220Z,95409.72
2022-08-16T02:03:58.483Z,95297.41
2022-08-16T02:06:40.368Z,95416.16
2022-08-16T02:09:17.706Z,95403.81
2022-08-16T02:11:53.237Z,95371.59
2022-08-16T02:14:26.567Z,95373.34
2022-08-16T02:16:57.345Z,95396.94
2022-08-16T02:20:00.083Z,95284.81
2022-08-16T02:22:34.871Z,95359.97
2022-08-16T02:25:10.108Z,95408.13
2022-08-16T02:27:39.986Z,95363.56
2022-08-16T02:30:37.946Z,95391.66
2022-08-16T02:33:03.281Z,95358.16
2022-08-16T02:35:31.959Z,95378.66
2022-08-16T02:38:01.859Z,95295.19
2022-08-16T02:40:37.879Z,95395.53
2022-08-16T02:43:09.699Z,95329.94
2022-08-16T02:45:39.631Z,95288.56
2022-08-16T02:48:28.627Z,95371.81
2022-08-16T02:51:06.236Z,95378.03
2022-08-16T02:53:37.206Z,95387.44
2022-08-16T02:56:09.891Z,95324.63
2022-08-16T02:58:39.886Z,95384.63
2022-08-16T03:01:12.613Z,95307.94
2022-08-16T03:04:49.538Z,95372.81
2022-08-16T03:06:42.817Z,95319.75
2022-08-16T03:09:22.404Z,95309.56
2022-08-16T03:11:54.672Z,95389.59
2022-08-16T03:14:24.704Z,95367.38
2022-08-16T03:16:59.227Z,95376.38
2022-08-16T03:19:47.334Z,95408.69
2022-08-16T03:22:18.999Z,95292.81
2022-08-16T03:24:57.516Z,95390.66
2022-08-16T03:27:30.764Z,95382.69
2022-08-16T03:30:16.260Z,95415.63
2022-08-16T03:32:47.984Z,95410.88
2022-08-16T03:35:22.718Z,95360.50
2022-08-16T03:38:02.909Z,95305.16
2022-08-16T03:40:39.164Z,95417.53
2022-08-16T03:43:20.765Z,95416.00
2022-08-16T03:45:55.239Z,95372.72
2022-08-16T03:48:36.798Z,95256.00
2022-08-16T03:51:13.857Z,95234.72
2022-08-16T03:53:57.760Z,95416.13
2022-08-16T03:56:30.494Z,95414.94
2022-08-16T03:58:59.743Z,95409.47
2022-08-16T04:01:33.581Z,95414.47
2022-08-16T04:04:02.125Z,95365.75
2022-08-16T04:06:30.792Z,95368.97
2022-08-16T04:08:58.470Z,95397.91
2022-08-16T04:11:26.832Z,95426.66
2022-08-16T04:14:32.950Z,95423.25
2022-08-16T04:16:55.428Z,95278.75
2022-08-16T04:19:37.632Z,95268.97
2022-08-16T04:22:13.718Z,95339.34
2022-08-16T04:24:54.837Z,95411.16
2022-08-16T04:27:29.028Z,95335.44
2022-08-16T04:30:02.900Z,95310.59
2022-08-16T04:32:37.800Z,95294.19
2022-08-16T04:35:16.471Z,95284.72
2022-08-16T04:37:45.544Z,95392.69
2022-08-16T04:41:14.816Z,95425.34
2022-08-16T04:43:43.689Z,95414.03
2022-08-16T04:46:26.567Z,95421.56
2022-08-16T04:49:08.034Z,95347.75
2022-08-16T04:51:36.311Z,95410.59
2022-08-16T04:54:05.089Z,95436.56
2022-08-16T04:56:34.333Z,95429.69
2022-08-16T04:59:11.159Z,95437.34
2022-08-16T05:01:58.191Z,95437.72
2022-08-16T05:04:30.095Z,95340.66
2022-08-16T05:06:58.580Z,95426.69
2022-08-16T05:09:42.782Z,95449.78
2022-08-16T05:12:21.960Z,95446.22
2022-08-16T05:15:01.760Z,95357.19
2022-08-16T05:17:34.090Z,95363.63
2022-08-16T05:20:38.750Z,95427.41
2022-08-16T05:23:01.193Z,95323.84
2022-08-16T05:25:30.045Z,95416.19
2022-08-16T05:28:10.655Z,95350.78
2022-08-16T05:30:43.301Z,95442.22
2022-08-16T05:33:20.935Z,95443.34
2022-08-16T05:35:54.939Z,95452.16
2022-08-16T05:38:39.650Z,95420.75
2022-08-16T05:41:13.816Z,95433.63
2022-08-16T05:43:46.540Z,95452.22
2022-08-16T05:46:28.557Z,95418.91
2022-08-16T05:49:03.695Z,95430.03
2022-08-16T05:51:38.587Z,95373.47
2022-08-16T05:54:11.212Z,95454.22
2022-08-16T05:56:40.473Z,95445.53
2022-08-16T05:59:11.097Z,95453.28
2022-08-16T06:01:40.018Z,95451.56
2022-08-16T06:04:13.618Z,95455.47
2022-08-16T06:06:58.826Z,95458.56
2022-08-16T06:09:42.639Z,95453.66
2022-08-16T06:12:12.668Z,95451.41
2022-08-16T06:14:58.492Z,95461.91
2022-08-16T06:17:41.513Z,95414.44
2022-08-16T06:20:18.402Z,95453.91
2022-08-16T06:22:57.494Z,95425.38
2022-08-16T06:25:36.221Z,95358.75
2022-08-16T06:28:09.494Z,95455.78
2022-08-16T06:30:44.210Z,95456.56
2022-08-16T06:33:19.746Z,95428.97
2022-08-16T06:35:59.521Z,95460.94
2022-08-16T06:38:33.456Z,95458.44
2022-08-16T06:41:13.895Z,95459.03
2022-08-16T06:43:44.120Z,95453.44
2022-08-16T06:46:32.006Z,95444.66
2022-08-16T06:49:05.240Z,95460.19
2022-08-16T06:51:46.340Z,95469.00
2022-08-16T06:54:22.908Z,95459.53
2022-08-16T06:56:55.344Z,95405.66
2022-08-16T06:59:27.150Z,95455.28
2022-08-16T07:01:59.651Z,95446.03
2022-08-16T07:04:33.299Z,95445.81
2022-08-16T07:07:12.292Z,95464.06
2022-08-16T07:09:44.191Z,95428.97
2022-08-16T07:12:12.523Z,95382.63
2022-08-16T07:14:47.882Z,95467.97
2022-08-16T07:17:18.283Z,95401.63
2022-08-16T07:20:02.824Z,95464.88
2022-08-16T07:23:13.383Z,95459.75
2022-08-16T07:25:50.672Z,95465.72
2022-08-16T07:28:20.652Z,95463.44
2022-08-16T07:30:53.114Z,95461.34
2022-08-16T07:33:52.712Z,95458.84
2022-08-16T07:36:22.504Z,95435.38
2022-08-16T07:38:52.557Z,95441.88
2022-08-16T07:41:23.080Z,95446.28
2022-08-16T07:43:55.750Z,95353.31
2022-08-16T07:46:38.609Z,95458.84
2022-08-16T07:49:32.472Z,95440.59
2022-08-16T07:52:01.703Z,95419.72
2022-08-16T07:54:48.993Z,95457.44
2022-08-16T07:57:24.089Z,95429.91
2022-08-16T07:59:57.203Z,95389.78
2022-08-16T08:02:27.423Z,95453.03
2022-08-16T08:04:57.875Z,95435.69
2022-08-16T08:07:28.808Z,95449.19
2022-08-16T08:10:01.605Z,95465.75
2022-08-16T08:12:36.063Z,95447.25
2022-08-16T08:15:09.804Z,95459.97
2022-08-16T08:17:42.812Z,95436.09
2022-08-16T08:20:26.379Z,95462.56
2022-08-16T08:22:59.933Z,95458.19
2022-08-16T08:25:54.382Z,95466.91
2022-08-16T08:28:19.945Z,95425.59
2022-08-16T08:31:01.561Z,95460.09
2022-08-16T08:33:34.624Z,95471.28
2022-08-16T08:36:05.570Z,95475.81
2022-08-16T08:38:44.997Z,95484.31
2022-08-16T08:41:18.208Z,95455.13
2022-08-16T08:43:50.423Z,95465.22
2022-08-16T08:46:21.317Z,95463.69
2022-08-16T08:49:00.084Z,95478.28
2022-08-16T08:51:37.088Z,95465.97
2022-08-16T08:54:09.509Z,95380.31
2022-08-16T08:56:45.387Z,95466.47
2022-08-16T08:59:27.352Z,95469.72
2022-08-16T09:01:57.972Z,95415.94
2022-08-16T09:04:41.679Z,95467.31
2022-08-16T09:07:16.916Z,95466.56
2022-08-16T09:09:47.676Z,95473.03
2022-08-16T09:12:30.162Z,95427.38
2022-08-16T09:15:15.945Z,95467.88
2022-08-16T09:17:54.931Z,95456.66
2022-08-16T09:20:26.938Z,95465.59
2022-08-16T09:22:55.715Z,95460.06
2022-08-16T09:25:34.299Z,95462.78
2022-08-16T09:28:08.871Z,95444.56
2022-08-16T09:30:43.346Z,95457.84
2022-08-16T09:33:14.496Z,95441.50
2022-08-16T09:35:43.127Z,95457.03
2022-08-16T09:38:22.326Z,95453.53
2022-08-16T09:41:00.624Z,95460.50
2022-08-16T09:43:58.280Z,95457.03
2022-08-16T09:46:45.267Z,95352.13
2022-08-16T09:49:05.020Z,95458.63
2022-08-16T09:51:37.583Z,95378.03
2022-08-16T09:54:06.120Z,95427.03
2022-08-16T09:56:39.715Z,95450.63
2022-08-16T09:59:23.415Z,95431.34
2022-08-16T10:01:52.950Z,95453.31
2022-08-16T10:04:31.180Z,95452.59
2022-08-16T10:07:15.639Z,95379.38
2022-08-16T10:09:55.492Z,95427.97
2022-08-16T10:12:43.405Z,95427.56
2022-08-16T10:15:16.118Z,95424.91
2022-08-16T10:18:00.927Z,95418.72
2022-08-16T10:20:32.525Z,95432.25
2022-08-16T10:23:07.462Z,95414.88
2022-08-16T10:27:17.461Z,95386.38
2022-08-16T10:28:28.474Z,95437.22
2022-08-16T10:30:58.775Z,95431.03
2022-08-16T10:33:33.181Z,95407.13
2022-08-16T10:36:03.861Z,95432.94
2022-08-16T10:38:36.750Z,95434.09
2022-08-16T10:41:05.617Z,95427.53
2022-08-16T10:43:35.215Z,95413.28
2022-08-16T10:46:04.107Z,95433.97
2022-08-16T10:48:54.942Z,95429.31
2022-08-16T10:51:34.185Z,95434.59
2022-08-16T10:54:29.681Z,95424.09
2022-08-16T10:56:58.636Z,95429.78
2022-08-16T10:59:39.241Z,95370.38
2022-08-16T11:03:04.738Z,95427.31
2022-08-16T11:05:08.863Z,95412.34
2022-08-16T11:07:52.535Z,95431.31
2022-08-16T11:16:25.412Z,95397.06
2022-08-16T11:19:05.835Z,95387.75
2022-08-16T11:24:41.244Z,95415.63
2022-08-16T11:27:23.655Z,95444.31
2022-08-16T11:29:55.757Z,95437.97
2022-08-16T11:32:31.787Z,95432.19
2022-08-16T11:35:13.202Z,95420.66
2022-08-16T11:40:38.573Z,95422.94
2022-08-16T11:43:10.012Z,95426.69
2022-08-16T11:45:39.402Z,95419.66
2022-08-16T11:48:10.757Z,95405.59
2022-08-16T11:50:38.480Z,95349.72
2022-08-16T11:53:08.531Z,95407.84
2022-08-16T11:55:38.296Z,95421.16
2022-08-16T11:58:07.427Z,95354.69
2022-08-16T12:00:51.650Z,95410.56
2022-08-16T12:03:34.846Z,95429.84
2022-08-16T12:06:10.961Z,95403.13
2022-08-16T12:08:57.429Z,95413.44
2022-08-16T12:11:31.405Z,95408.47
2022-08-16T12:13:59.910Z,95393.00
2022-08-16T12:16:31.220Z,95417.81
2022-08-16T12:19:02.382Z,95363.50
2022-08-16T12:21:36.226Z,95382.75
2022-08-16T12:24:22.179Z,95396.81
2022-08-16T12:26:51.977Z,95400.56
2022-08-16T12:29:20.466Z,95404.66
2022-08-16T12:32:00.726Z,95390.06
2022-08-16T12:34:30.500Z,95400.06
2022-08-16T12:36:59.351Z,95374.72
2022-08-16T12:39:28.997Z,95403.47
2022-08-16T12:41:57.553Z,95404.31
2022-08-16T12:44:26.615Z,95403.09
2022-08-16T12:47:16.694Z,95381.78
2022-08-16T12:49:44.328Z,95391.91
2022-08-16T12:52:32.852Z,95380.63
2022-08-16T12:55:03.501Z,95376.72
2022-08-16T12:57:36.668Z,95390.47
2022-08-16T13:00:07.100Z,95402.13
2022-08-16T13:02:46.679Z,95396.94
2022-08-16T13:05:15.857Z,95392.44
2022-08-16T13:07:45.354Z,95389.47
2022-08-16T13:10:36.842Z,95384.59
2022-08-16T13:13:06.699Z,95371.94
2022-08-16T13:15:55.563Z,95380.25
2022-08-16T13:18:33.923Z,95373.13
2022-08-16T13:21:03.940Z,95384.06
2022-08-16T13:23:32.285Z,95326.38
2022-08-16T13:26:01.601Z,95379.44
2022-08-16T13:28:29.269Z,95324.41
2022-08-16T13:30:58.919Z,95306.34
2022-08-16T13:33:30.439Z,95376.34
2022-08-16T13:36:01.432Z,95368.63
2022-08-16T13:38:36.429Z,95330.19
2022-08-16T13:41:08.251Z,95367.34
2022-08-16T13:43:38.794Z,95368.06
2022-08-16T13:46:07.608Z,95369.22
2022-08-16T13:48:42.908Z,95307.91
2022-08-16T13:51:16.812Z,95363.53
2022-08-16T13:53:45.848Z,95358.91
2022-08-16T13:56:25.355Z,95366.53
2022-08-16T13:58:55.175Z,95268.22
2022-08-16T14:01:23.571Z,95363.50
2022-08-16T14:03:55.763Z,95350.38
2022-08-16T14:06:23.663Z,95308.63
2022-08-16T14:08:59.110Z,95324.16
2022-08-16T14:11:36.153Z,95356.00
2022-08-16T14:14:05.545Z,95354.03
2022-08-16T14:16:35.110Z,95355.81
2022-08-16T14:19:03.520Z,95360.41
2022-08-16T14:21:34.797Z,95356.34
2022-08-16T14:24:12.788Z,95352.38
2022-08-16T14:26:52.850Z,95347.75
2022-08-16T14:29:21.280Z,95351.59
2022-08-16T14:31:54.108Z,95350.47
2022-08-16T14:34:25.543Z,95328.31
2022-08-16T14:36:56.759Z,95352.81
2022-08-16T14:39:24.622Z,95349.31
2022-08-16T14:41:55.800Z,95344.28
2022-08-16T14:44:24.318Z,95340.06
2022-08-16T14:46:54.667Z,95338.09
2022-08-16T14:49:23.503Z,95249.69
2022-08-16T14:51:51.625Z,95324.94
2022-08-16T14:54:20.039Z,95337.03
2022-08-16T14:56:54.888Z,95345.59
2022-08-16T14:59:24.521Z,95334.03
2022-08-16T15:01:59.274Z,95310.31
2022-08-16T15:04:32.478Z,95337.19
2022-08-16T15:07:10.968Z,95308.28
2022-08-16T15:09:44.309Z,95263.91
2022-08-16T15:12:31.172Z,95335.22
2022-08-16T15:15:13.155Z,95339.53
2022-08-16T15:17:54.186Z,95339.25
2022-08-16T15:20:26.450Z,95329.16
2022-08-16T15:22:55.111Z,95341.66
2022-08-16T15:25:27.557Z,95338.84
2022-08-16T15:27:58.549Z,95342.00
2022-08-16T15:30:56.979Z,95328.75
2022-08-16T15:33:19.736Z,95351.50
2022-08-16T15:35:50.081Z,95355.56
2022-08-16T15:38:56.901Z,95349.19
2022-08-16T15:41:06.754Z,95344.94
2022-08-16T15:43:40.021Z,95354.69
2022-08-16T15:46:54.638Z,95356.63
2022-08-16T15:49:13.667Z,95344.59
2022-08-16T15:51:43.590Z,95340.88
2022-08-16T15:54:29.008Z,95346.16
2022-08-16T15:57:04.292Z,95340.84
2022-08-16T15:59:48.258Z,95322.94
2022-08-16T16:02:27.625Z,95345.59
2022-08-16T16:05:00.703Z,95343.69
2022-08-16T16:07:30.455Z,95339.91
2022-08-16T16:09:59.205Z,95341.13
2022-08-16T16:15:16.514Z,95344.28
2022-08-16T16:17:50.797Z,95338.41
2022-08-16T16:20:20.983Z,95338.47
2022-08-16T16:22:49.317Z,95337.34
2022-08-16T16:25:18.670Z,95313.59
2022-08-16T16:27:55.258Z,95325.47
2022-08-16T16:30:33.258Z,95331.34
2022-08-16T16:33:15.604Z,95329.09
2022-08-16T16:35:56.663Z,95301.56
2022-08-16T16:38:28.529Z,95328.44
2022-08-16T16:40:56.199Z,95296.97
2022-08-16T16:43:25.727Z,95322.69
2022-08-16T16:45:59.139Z,95322.72
2022-08-16T16:48:34.365Z,95321.16
2022-08-16T16:51:09.145Z,95323.88
2022-08-16T16:53:42.069Z,95306.31
2022-08-16T16:56:19.682Z,95324.41
2022-08-16T16:59:01.130Z,95330.28
2022-08-16T17:01:41.401Z,95324.16
2022-08-16T17:04:31.461Z,95253.53
2022-08-16T17:07:02.706Z,95330.38
2022-08-16T17:09:30.701Z,95328.50
2022-08-16T17:11:59.355Z,95331.31
2022-08-16T17:14:32.929Z,95312.19
2022-08-16T17:17:06.417Z,95333.78
2022-08-16T17:19:40.344Z,95348.50
2022-08-16T17:22:14.862Z,95335.72
2022-08-16T17:24:45.199Z,95331.56
2022-08-16T17:27:17.978Z,95338.97
2022-08-16T17:29:47.450Z,95340.91
2022-08-16T17:32:34.383Z,95334.03
2022-08-16T17:35:18.299Z,95342.53
2022-08-16T17:37:51.181Z,95293.81
2022-08-16T17:40:25.858Z,95348.03
2022-08-16T17:43:10.243Z,95350.41
2022-08-16T17:45:39.150Z,95355.84
2022-08-16T17:48:07.256Z,95334.34
2022-08-16T17:50:40.610Z,95355.59
2022-08-16T17:53:09.059Z,95359.88
2022-08-16T17:55:39.710Z,95361.09
2022-08-16T17:58:19.822Z,95360.38
2022-08-16T18:00:52.187Z,95357.75
2022-08-16T18:04:07.373Z,95362.78
2022-08-16T18:06:15.638Z,95360.13
2022-08-16T18:08:43.409Z,95360.91
2022-08-16T18:11:13.265Z,95306.97
2022-08-16T18:13:43.077Z,95370.97
2022-08-16T18:16:11.406Z,95371.34
2022-08-16T18:18:39.405Z,95352.06
2022-08-16T18:21:25.113Z,95350.50
2022-08-16T18:23:54.134Z,95350.88
2022-08-16T18:26:21.993Z,95358.59
2022-08-16T18:28:50.431Z,95365.13
2022-08-16T18:31:18.344Z,95349.66
2022-08-16T18:36:20.144Z,95367.00
2022-08-16T18:38:49.603Z,95372.72
2022-08-16T18:41:19.128Z,95370.34
2022-08-16T18:43:54.412Z,95373.38
2022-08-16T18:46:34.510Z,95374.88
2022-08-16T18:49:02.150Z,95380.63
2022-08-16T18:51:30.428Z,95375.97
2022-08-16T18:53:58.075Z,95383.63
2022-08-16T18:56:55.897Z,95272.03
2022-08-16T18:59:14.732Z,95390.44
2022-08-16T19:01:47.626Z,95383.84
2022-08-16T19:04:54.948Z,95351.41
2022-08-16T19:07:07.385Z,95325.03
2022-08-16T19:09:35.016Z,95393.28
2022-08-16T19:12:06.178Z,95402.47
2022-08-16T19:14:33.808Z,95400.53
2022-08-16T19:17:01.442Z,95405.47
2022-08-16T19:19:29.072Z,95404.69
2022-08-16T19:21:58.218Z,95407.38
2022-08-16T19:24:29.222Z,95414.56
2022-08-16T19:26:57.273Z,95412.59
2022-08-16T19:29:26.309Z,95415.94
2022-08-16T19:31:53.930Z,95417.44
2022-08-16T19:34:21.549Z,95414.31
2022-08-16T19:36:49.172Z,95394.09
2022-08-16T19:39:18.123Z,95420.72
2022-08-16T19:41:52.990Z,95416.41
2022-08-16T19:44:22.023Z,95358.19
2022-08-16T19:46:51.458Z,95407.66
2022-08-16T19:49:19.125Z,95416.06
2022-08-16T19:51:49.163Z,95420.63
2022-08-16T19:54:17.984Z,95422.19
2022-08-16T19:56:45.606Z,95421.66
2022-08-16T19:59:19.849Z,95420.41
2022-08-16T20:01:52.445Z,95424.97
2022-08-16T20:04:21.438Z,95423.31
2022-08-16T20:06:49.135Z,95380.25
2022-08-16T20:09:16.914Z,95397.63
2022-08-16T20:11:45.165Z,95361.59
2022-08-16T20:14:24.296Z,95436.72
2022-08-16T20:16:56.974Z,95429.78
2022-08-16T20:19:24.990Z,95432.34
2022-08-16T20:21:54.033Z,95439.66
2022-08-16T20:24:37.124Z,95435.31
2022-08-16T20:27:07.274Z,95438.78
2022-08-16T20:29:35.158Z,95409.16
2022-08-16T20:32:05.425Z,95440.41
2022-08-16T20:34:33.425Z,95448.88
2022-08-16T20:37:06.319Z,95454.06
2022-08-16T20:39:34.081Z,95431.25
2022-08-16T20:42:01.740Z,95352.09
2022-08-16T20:44:29.394Z,95458.72
2022-08-16T20:46:57.110Z,95365.78
2022-08-16T20:49:28.332Z,95359.94
2022-08-16T20:51:59.369Z,95460.28
2022-08-16T20:54:28.501Z,95433.41
2022-08-16T20:56:56.460Z,95463.97
2022-08-16T20:59:24.202Z,95462.03
2022-08-16T21:01:51.988Z,95463.09
2022-08-16T21:04:20.483Z,95465.63
2022-08-16T21:06:53.749Z,95333.44
2022-08-16T21:09:23.886Z,95398.41
2022-08-16T21:11:53.918Z,95397.34
2022-08-16T21:14:21.653Z,95348.38
2022-08-16T21:16:49.351Z,95446.22
2022-08-16T21:19:17.636Z,95438.28
2022-08-16T21:21:45.347Z,95457.81
2022-08-16T21:24:15.512Z,95445.41
2022-08-16T21:26:49.796Z,95468.72
2022-08-16T21:29:24.905Z,95358.47
2022-08-16T21:31:53.931Z,95454.91
2022-08-16T21:34:21.919Z,95346.97
2022-08-16T21:36:49.833Z,95468.00
2022-08-16T21:39:18.828Z,95432.00
2022-08-16T21:41:46.474Z,95470.19
2022-08-16T21:44:14.257Z,95472.72
2022-08-16T21:46:41.876Z,95468.41
2022-08-16T21:49:09.538Z,95466.78
2022-08-16T21:51:37.261Z,95442.59
2022-08-16T21:54:05.466Z,95335.00
2022-08-16T21:56:34.489Z,95461.22
2022-08-16T21:59:06.212Z,95438.03
2022-08-16T22:01:33.924Z,95450.78
2022-08-16T22:04:35.885Z,95399.00
2022-08-16T22:06:49.439Z,95465.34
2022-08-16T22:09:17.124Z,95462.25
2022-08-16T22:11:46.211Z,95464.91
2022-08-16T22:14:14.046Z,95461.72
2022-08-16T22:16:43.434Z,95467.16
2022-08-16T22:19:13.184Z,95468.72
2022-08-16T22:21:41.159Z,95464.16
2022-08-16T22:24:09.028Z,95402.13
2022-08-16T22:26:43.141Z,95471.72
2022-08-16T22:29:14.779Z,95455.34
2022-08-16T22:31:43.474Z,95333.72
2022-08-16T22:34:11.243Z,95374.88
2022-08-16T22:36:39.373Z,95439.16
2022-08-16T22:39:13.004Z,95467.69
2022-08-16T22:41:43.289Z,95466.09
2022-08-16T22:44:13.495Z,95437.97
2022-08-16T22:46:41.254Z,95467.44
2022-08-16T22:49:09.679Z,95464.06
2022-08-16T22:51:38.847Z,95472.19
2022-08-16T22:54:42.513Z,95475.97
2022-08-16T22:56:56.443Z,95467.44
2022-08-16T22:59:25.904Z,95467.72
2022-08-16T23:01:53.836Z,95402.56
2022-08-16T23:04:21.659Z,95339.81
2022-08-16T23:06:49.354Z,95462.88
2022-08-16T23:09:17.045Z,95427.00
2022-08-16T23:11:44.840Z,95352.72
2022-08-16T23:14:12.601Z,95343.84
2022-08-16T23:16:41.614Z,95367.38
2022-08-16T23:19:12.530Z,95456.66
2022-08-16T23:24:11.917Z,95308.66
2022-08-16T23:26:45.833Z,95336.16
2022-08-16T23:29:23.796Z,95443.25
2022-08-16T23:31:58.280Z,95441.72
2022-08-16T23:34:28.221Z,95439.50
2022-08-16T23:36:56.517Z,95435.84
2022-08-16T23:39:24.431Z,95404.09
2022-08-16T23:41:52.373Z,95401.97
2022-08-16T23:44:56.859Z,95355.22
2022-08-16T23:47:09.587Z,95436.28
2022-08-16T23:50:00.799Z,95444.19
2022-08-16T23:52:40.576Z,95384.84
2022-08-16T23:55:13.496Z,95441.41
2022-08-16T23:57:45.933Z,95437.63
